createdAt,value
2022-07-28T00:01:53.138Z,4.32
2022-07-28T00:04:22.040Z,4.65
2022-07-28T00:06:52.066Z,3.70
2022-07-28T00:09:22.528Z,3.25
2022-07-28T00:11:54.955Z,3.92
2022-07-28T00:14:24.300Z,3.50
2022-07-28T00:16:53.445Z,3.72
2022-07-28T00:19:22.407Z,3.80
2022-07-28T00:21:51.235Z,3.53
2022-07-28T00:24:23.445Z,3.58
2022-07-28T00:26:52.449Z,3.53
2022-07-28T00:29:21.547Z,3.22
2022-07-28T00:31:50.458Z,3.45
2022-07-28T00:34:19.625Z,3.13
2022-07-28T00:36:55.619Z,3.65
2022-07-28T00:39:25.962Z,4.22
2022-07-28T00:41:55.005Z,3.72
2022-07-28T00:44:23.821Z,4.95
2022-07-28T00:46:52.783Z,5.22
2022-07-28T00:49:23.005Z,4.72
2022-07-28T00:51:55.324Z,5.22
2022-07-28T00:54:25.684Z,5.13
2022-07-28T00:56:54.658Z,4.85
2022-07-28T00:59:23.560Z,4.85
2022-07-28T01:01:53.304Z,5.00
2022-07-28T01:04:24.301Z,4.85
2022-07-28T01:07:12.691Z,5.40
2022-07-28T01:09:57.697Z,5.20
2022-07-28T01:12:43.207Z,5.18
2022-07-28T01:15:24.254Z,5.40
2022-07-28T01:18:06.509Z,5.60
2022-07-28T01:20:42.931Z,5.90
2022-07-28T01:23:49.733Z,5.75
2022-07-28T01:26:54.766Z,6.07
2022-07-28T01:29:53.138Z,5.63
2022-07-28T01:32:28.420Z,5.40
2022-07-28T01:35:06.501Z,6.53
2022-07-28T01:37:43.574Z,5.93
2022-07-28T01:40:18.691Z,6.20
2022-07-28T01:42:53.041Z,6.55
2022-07-28T01:45:23.753Z,6.30
2022-07-28T01:47:58.143Z,6.55
2022-07-28T01:50:30.951Z,6.80
2022-07-28T01:53:01.747Z,6.20
2022-07-28T01:55:37.280Z,6.75
2022-07-28T01:58:08.121Z,6.38
2022-07-28T02:00:38.513Z,6.13
2022-07-28T02:03:11.719Z,6.18
2022-07-28T02:05:44.218Z,5.90
2022-07-28T02:08:17.023Z,6.28
2022-07-28T02:11:09.712Z,6.32
2022-07-28T02:16:12.999Z,5.95
2022-07-28T02:18:46.367Z,6.40
2022-07-28T02:21:17.861Z,5.22
2022-07-28T02:23:51.307Z,5.75
2022-07-28T02:26:29.277Z,6.80
2022-07-28T02:29:02.537Z,4.55
2022-07-28T02:31:53.611Z,5.15
2022-07-28T02:34:28.897Z,4.75
2022-07-28T02:37:03.282Z,5.78
2022-07-28T02:39:41.691Z,5.80
2022-07-28T02:42:16.409Z,5.10
2022-07-28T02:44:53.176Z,5.60
2022-07-28T02:47:27.292Z,5.18
2022-07-28T02:50:03.073Z,5.55
2022-07-28T02:52:33.954Z,5.85
2022-07-28T02:55:05.559Z,3.85
2022-07-28T02:57:35.949Z,5.10
2022-07-28T03:00:06.324Z,6.20
2022-07-28T03:02:36.741Z,4.70
2022-07-28T03:05:11.510Z,5.93
2022-07-28T03:07:49.206Z,5.40
2022-07-28T03:10:34.043Z,5.03
2022-07-28T03:13:06.823Z,3.85
2022-07-28T03:15:37.249Z,4.43
2022-07-28T03:18:07.886Z,4.18
2022-07-28T03:20:38.188Z,4.95
2022-07-28T03:23:08.153Z,5.25
2022-07-28T03:25:47.518Z,3.60
2022-07-28T03:28:22.471Z,3.80
2022-07-28T03:30:58.402Z,5.07
2022-07-28T03:33:30.630Z,4.68
2022-07-28T03:36:13.136Z,4.05
2022-07-28T03:38:49.610Z,6.75
2022-07-28T03:41:21.313Z,5.10
2022-07-28T03:43:51.908Z,3.93
2022-07-28T03:46:21.921Z,4.30
2022-07-28T03:48:50.987Z,4.78
2022-07-28T03:51:21.493Z,5.05
2022-07-28T03:53:50.819Z,4.15
2022-07-28T03:56:19.690Z,5.78
2022-07-28T03:58:48.657Z,5.18
2022-07-28T04:01:18.379Z,4.35
2022-07-28T04:03:47.405Z,4.47
2022-07-28T04:06:16.601Z,4.80
2022-07-28T04:08:48.492Z,4.28
2022-07-28T04:11:17.435Z,4.03
2022-07-28T04:13:46.430Z,4.28
2022-07-28T04:16:15.447Z,4.90
2022-07-28T04:18:44.464Z,5.40
2022-07-28T04:21:13.658Z,5.50
2022-07-28T04:23:42.607Z,3.97
2022-07-28T04:26:13.485Z,4.78
2022-07-28T04:28:42.478Z,3.47
2022-07-28T04:31:11.590Z,3.88
2022-07-28T04:33:41.284Z,3.92
2022-07-28T04:36:10.453Z,3.90
2022-07-28T04:38:39.586Z,4.00
2022-07-28T04:41:08.564Z,4.20
2022-07-28T04:43:38.906Z,3.47
2022-07-28T04:46:09.920Z,4.00
2022-07-28T04:48:42.366Z,4.55
2022-07-28T04:51:11.761Z,3.53
2022-07-28T04:53:41.044Z,3.13
2022-07-28T04:56:10.115Z,4.28
2022-07-28T04:58:40.401Z,3.50
2022-07-28T05:01:12.271Z,3.25
2022-07-28T05:03:41.238Z,2.83
2022-07-28T05:06:10.347Z,3.67
2022-07-28T05:08:39.279Z,3.28
2022-07-28T05:11:08.139Z,3.47
2022-07-28T05:13:37.122Z,3.42
2022-07-28T05:16:08.795Z,2.60
2022-07-28T05:18:37.798Z,3.13
2022-07-28T05:21:06.695Z,3.40
2022-07-28T05:23:35.660Z,2.80
2022-07-28T05:26:07.147Z,3.47
2022-07-28T05:28:36.280Z,3.47
2022-07-28T05:31:07.968Z,3.40
2022-07-28T05:33:37.672Z,3.20
2022-07-28T05:36:07.610Z,4.15
2022-07-28T05:38:36.596Z,3.15
2022-07-28T05:41:06.604Z,2.92
2022-07-28T05:43:37.974Z,2.75
2022-07-28T05:46:08.438Z,2.80
2022-07-28T05:48:37.444Z,3.20
2022-07-28T05:51:07.697Z,3.03
2022-07-28T05:53:36.580Z,3.28
2022-07-28T05:56:06.133Z,3.05
2022-07-28T05:58:35.043Z,4.22
2022-07-28T06:01:04.570Z,5.00
2022-07-28T06:03:39.970Z,4.20
2022-07-28T06:06:15.611Z,4.50
2022-07-28T06:08:47.339Z,4.32
2022-07-28T06:11:22.184Z,9.20
2022-07-28T06:13:53.248Z,7.63
2022-07-28T06:16:23.834Z,7.57
2022-07-28T06:18:54.332Z,8.73
2022-07-28T06:21:25.219Z,8.90
2022-07-28T06:23:54.101Z,9.95
2022-07-28T06:26:23.787Z,10.95
2022-07-28T06:28:53.538Z,4.85
2022-07-28T06:31:22.560Z,8.40
2022-07-28T06:33:52.752Z,6.25
2022-07-28T06:36:21.732Z,5.50
2022-07-28T06:38:50.565Z,3.83
2022-07-28T06:41:19.546Z,3.88
2022-07-28T06:43:48.489Z,5.00
2022-07-28T06:46:19.568Z,6.40
2022-07-28T06:48:49.665Z,4.25
2022-07-28T06:51:20.251Z,3.40
2022-07-28T06:53:49.593Z,3.78
2022-07-28T06:56:19.660Z,4.03
2022-07-28T06:58:50.917Z,3.40
2022-07-28T07:01:20.121Z,3.90
2022-07-28T07:03:49.193Z,3.25
2022-07-28T07:06:19.788Z,3.25
2022-07-28T07:08:48.865Z,3.03
2022-07-28T07:11:17.811Z,3.50
2022-07-28T07:13:47.449Z,3.65
2022-07-28T07:16:16.651Z,3.60
2022-07-28T07:18:45.980Z,3.25
2022-07-28T07:21:14.986Z,3.45
2022-07-28T07:23:45.345Z,3.33
2022-07-28T07:26:14.502Z,3.92
2022-07-28T07:28:43.426Z,3.63
2022-07-28T07:31:12.552Z,3.42
2022-07-28T07:33:41.619Z,3.60
2022-07-28T07:36:10.623Z,3.55
2022-07-28T07:38:39.672Z,3.35
2022-07-28T07:41:09.946Z,3.35
2022-07-28T07:43:42.368Z,3.95
2022-07-28T07:46:15.321Z,3.50
2022-07-28T07:48:44.516Z,3.78
2022-07-28T07:51:15.675Z,3.90
2022-07-28T07:53:44.814Z,3.63
2022-07-28T07:56:18.286Z,3.58
2022-07-28T07:58:47.211Z,3.70
2022-07-28T08:01:16.369Z,3.88
2022-07-28T08:03:46.276Z,3.30
2022-07-28T08:06:26.253Z,3.40
2022-07-28T08:08:56.277Z,3.92
2022-07-28T08:11:26.499Z,3.80
2022-07-28T08:13:55.441Z,3.15
2022-07-28T08:16:24.622Z,3.55
2022-07-28T08:18:53.794Z,2.95
2022-07-28T08:21:22.722Z,3.03
2022-07-28T08:23:51.621Z,3.42
2022-07-28T08:26:20.588Z,2.50
2022-07-28T08:28:50.879Z,2.95
2022-07-28T08:31:22.000Z,2.90
2022-07-28T08:33:53.455Z,3.03
2022-07-28T08:36:23.685Z,3.95
2022-07-28T08:38:52.698Z,4.13
2022-07-28T08:41:33.603Z,3.67
2022-07-28T08:44:06.509Z,3.22
2022-07-28T08:46:37.234Z,3.72
2022-07-28T08:49:10.448Z,2.93
2022-07-28T08:51:42.762Z,3.20
2022-07-28T08:54:17.522Z,3.10
2022-07-28T08:56:49.134Z,2.70
2022-07-28T08:59:19.901Z,3.13
2022-07-28T09:01:54.030Z,2.60
2022-07-28T09:04:27.448Z,2.75
2022-07-28T09:07:00.322Z,6.03
2022-07-28T09:09:29.833Z,5.90
2022-07-28T09:11:59.094Z,6.05
2022-07-28T09:14:29.500Z,5.30
2022-07-28T09:17:01.632Z,4.93
2022-07-28T09:19:34.270Z,3.92
2022-07-28T09:22:05.642Z,3.75
2022-07-28T09:24:40.574Z,3.50
2022-07-28T09:27:12.522Z,4.10
2022-07-28T09:29:47.214Z,4.07
2022-07-28T09:32:20.157Z,3.63
2022-07-28T09:34:51.679Z,2.90
2022-07-28T09:37:27.158Z,4.00
2022-07-28T09:39:59.197Z,3.35
2022-07-28T09:45:24.232Z,2.80
2022-07-28T09:48:11.403Z,2.80
2022-07-28T09:50:42.286Z,2.90
2022-07-28T09:53:28.226Z,3.15
2022-07-28T09:56:00.908Z,2.83
2022-07-28T09:58:30.769Z,2.58
2022-07-28T10:01:13.322Z,2.85
2022-07-28T10:03:44.254Z,2.70
2022-07-28T10:06:16.563Z,2.40
2022-07-28T10:08:47.702Z,3.55
2022-07-28T10:11:19.025Z,3.10
2022-07-28T10:16:27.432Z,2.70
2022-07-28T10:18:57.469Z,3.30
2022-07-28T10:21:28.310Z,2.90
2022-07-28T10:23:59.607Z,2.90
2022-07-28T10:29:04.657Z,3.00
2022-07-28T10:31:42.697Z,2.42
2022-07-28T10:34:18.772Z,2.33
2022-07-28T10:36:56.611Z,2.67
2022-07-28T10:39:30.174Z,2.42
2022-07-28T10:42:06.174Z,2.42
2022-07-28T10:44:35.839Z,2.28
2022-07-28T10:47:10.069Z,2.30
2022-07-28T10:49:50.453Z,2.20
2022-07-28T10:52:47.155Z,2.58
2022-07-28T10:55:21.488Z,2.58
2022-07-28T10:58:01.979Z,2.80
2022-07-28T11:00:59.933Z,2.53
2022-07-28T11:03:44.190Z,2.60
2022-07-28T11:06:30.902Z,3.25
2022-07-28T11:09:01.747Z,2.40
2022-07-28T11:11:59.078Z,3.38
2022-07-28T11:14:37.511Z,3.10
2022-07-28T11:17:33.185Z,2.70
2022-07-28T11:20:16.733Z,3.40
2022-07-28T11:22:53.863Z,2.83
2022-07-28T11:25:23.273Z,2.72
2022-07-28T11:28:05.702Z,2.85
2022-07-28T11:30:55.732Z,3.10
2022-07-28T11:33:27.491Z,3.28
2022-07-28T11:36:00.600Z,3.00
2022-07-28T11:38:31.384Z,3.00
2022-07-28T11:41:00.489Z,3.47
2022-07-28T11:43:36.343Z,3.22
2022-07-28T11:46:37.620Z,2.53
2022-07-28T11:49:22.084Z,2.90
2022-07-28T11:52:26.210Z,2.85
2022-07-28T11:54:57.759Z,2.88
2022-07-28T11:57:29.225Z,2.95
2022-07-28T12:00:02.891Z,2.83
2022-07-28T12:02:34.237Z,2.83
2022-07-28T12:05:14.271Z,2.65
2022-07-28T12:07:48.281Z,2.90
2022-07-28T12:10:54.490Z,2.90
2022-07-28T12:13:28.764Z,3.20
2022-07-28T12:15:58.313Z,2.60
2022-07-28T12:18:27.527Z,3.10
2022-07-28T12:20:58.562Z,2.47
2022-07-28T12:23:38.834Z,2.78
2022-07-28T12:26:31.809Z,2.53
2022-07-28T12:29:08.604Z,2.50
2022-07-28T12:31:51.734Z,2.90
2022-07-28T12:34:28.475Z,2.70
2022-07-28T12:37:01.996Z,2.90
2022-07-28T12:39:34.441Z,3.10
2022-07-28T12:42:08.654Z,2.88
2022-07-28T12:44:39.602Z,2.88
2022-07-28T12:47:12.242Z,3.00
2022-07-28T12:49:44.448Z,2.75
2022-07-28T12:52:18.431Z,3.25
2022-07-28T12:54:55.625Z,3.20
2022-07-28T12:57:51.654Z,3.17
2022-07-28T13:00:23.904Z,2.80
2022-07-28T13:02:55.284Z,2.65
2022-07-28T13:05:50.594Z,2.78
2022-07-28T13:08:20.780Z,2.65
2022-07-28T13:10:56.970Z,2.70
2022-07-28T13:13:28.078Z,2.58
2022-07-28T13:16:13.797Z,2.83
2022-07-28T13:18:43.945Z,2.50
2022-07-28T13:21:13.212Z,2.70
2022-07-28T13:23:42.474Z,2.83
2022-07-28T13:26:13.158Z,2.50
2022-07-28T13:28:42.575Z,4.13
2022-07-28T13:31:11.812Z,4.28
2022-07-28T13:33:41.930Z,3.47
2022-07-28T13:36:11.232Z,2.72
2022-07-28T13:38:41.081Z,2.83
2022-07-28T13:41:10.251Z,2.28
2022-07-28T13:43:41.182Z,2.40
2022-07-28T13:46:17.846Z,2.40
2022-07-28T13:48:58.074Z,2.87
2022-07-28T13:51:29.910Z,2.97
2022-07-28T13:54:03.921Z,3.28
2022-07-28T13:56:33.412Z,2.90
2022-07-28T13:59:07.309Z,3.17
2022-07-28T14:01:38.358Z,3.35
2022-07-28T14:04:10.968Z,3.70
2022-07-28T14:06:46.542Z,3.17
2022-07-28T14:09:18.367Z,3.15
2022-07-28T14:11:53.778Z,4.05
2022-07-28T14:14:25.656Z,2.88
2022-07-28T14:16:55.769Z,2.35
2022-07-28T14:19:39.527Z,3.53
2022-07-28T14:22:13.702Z,2.92
2022-07-28T14:24:43.694Z,2.50
2022-07-28T14:27:13.091Z,3.20
2022-07-28T14:29:43.611Z,2.80
2022-07-28T14:32:12.761Z,2.78
2022-07-28T14:34:41.866Z,2.70
2022-07-28T14:37:11.040Z,3.20
2022-07-28T14:39:40.226Z,4.05
2022-07-28T14:42:10.360Z,3.97
2022-07-28T14:44:39.552Z,4.00
2022-07-28T14:47:10.302Z,3.30
2022-07-28T14:49:58.198Z,2.42
2022-07-28T14:52:29.512Z,3.38
2022-07-28T14:54:58.808Z,3.40
2022-07-28T14:57:50.165Z,2.97
2022-07-28T15:00:19.194Z,2.35
2022-07-28T15:02:51.406Z,2.70
2022-07-28T15:05:21.097Z,3.38
2022-07-28T15:07:52.104Z,3.03
2022-07-28T15:12:51.958Z,2.70
2022-07-28T15:15:26.627Z,2.05
2022-07-28T15:17:57.445Z,3.15
2022-07-28T15:20:26.619Z,3.50
2022-07-28T15:22:55.829Z,3.20
2022-07-28T15:25:25.065Z,2.65
2022-07-28T15:27:54.257Z,2.80
2022-07-28T15:30:23.677Z,3.05
2022-07-28T15:32:57.055Z,3.08
2022-07-28T15:35:28.371Z,2.40
2022-07-28T15:38:17.480Z,2.60
2022-07-28T15:40:48.085Z,2.75
2022-07-28T15:43:19.058Z,2.50
2022-07-28T15:45:55.496Z,2.20
2022-07-28T15:48:24.711Z,2.40
2022-07-28T15:50:55.479Z,2.40
2022-07-28T15:53:25.017Z,2.65
2022-07-28T15:55:54.369Z,2.63
2022-07-28T15:58:26.385Z,3.33
2022-07-28T16:00:56.001Z,3.20
2022-07-28T16:03:28.706Z,2.92
2022-07-28T16:05:59.374Z,3.25
2022-07-28T16:08:28.851Z,3.70
2022-07-28T16:10:58.060Z,4.00
2022-07-28T16:13:36.222Z,3.08
2022-07-28T16:16:10.985Z,3.20
2022-07-28T16:18:44.491Z,2.80
2022-07-28T16:21:15.037Z,2.80
2022-07-28T16:23:44.228Z,3.10
2022-07-28T16:26:13.473Z,2.50
2022-07-28T16:28:42.627Z,2.70
2022-07-28T16:31:16.711Z,2.40
2022-07-28T16:33:46.071Z,2.60
2022-07-28T16:36:16.433Z,2.55
2022-07-28T16:38:45.632Z,2.75
2022-07-28T16:41:16.112Z,2.90
2022-07-28T16:43:45.662Z,2.85
2022-07-28T16:46:15.099Z,3.33
2022-07-28T16:48:44.141Z,3.60
2022-07-28T16:51:13.209Z,2.90
2022-07-28T16:53:43.652Z,2.80
2022-07-28T16:56:17.305Z,2.85
2022-07-28T16:58:46.703Z,3.00
2022-07-28T17:01:15.949Z,2.75
2022-07-28T17:03:48.530Z,2.78
2022-07-28T17:06:17.651Z,2.58
2022-07-28T17:09:03.896Z,2.72
2022-07-28T17:11:33.113Z,2.42
2022-07-28T17:14:05.331Z,2.70
2022-07-28T17:16:37.637Z,2.67
2022-07-28T17:19:18.820Z,2.55
2022-07-28T17:22:12.792Z,2.58
2022-07-28T17:24:55.943Z,2.38
2022-07-28T17:27:37.638Z,2.58
2022-07-28T17:30:09.348Z,2.25
2022-07-28T17:32:38.218Z,2.17
2022-07-28T17:35:31.519Z,2.40
2022-07-28T17:38:00.689Z,2.45
2022-07-28T17:40:31.164Z,2.33
2022-07-28T17:43:00.087Z,2.60
2022-07-28T17:45:29.015Z,3.17
2022-07-28T17:47:58.199Z,3.10
2022-07-28T17:50:27.137Z,2.95
2022-07-28T17:52:56.096Z,3.13
2022-07-28T17:55:57.495Z,2.30
2022-07-28T17:58:32.279Z,2.50
2022-07-28T18:01:10.779Z,2.28
2022-07-28T18:03:59.077Z,2.30
2022-07-28T18:06:32.418Z,2.53
2022-07-28T18:09:06.470Z,2.45
2022-07-28T18:11:57.428Z,2.22
2022-07-28T18:14:30.316Z,2.30
2022-07-28T18:16:59.928Z,2.03
2022-07-28T18:19:30.196Z,2.30
2022-07-28T18:22:01.071Z,2.80
2022-07-28T18:24:30.050Z,3.20
2022-07-28T18:26:59.522Z,2.72
2022-07-28T18:29:38.204Z,2.97
2022-07-28T18:32:09.659Z,3.63
2022-07-28T18:34:40.354Z,3.03
2022-07-28T18:37:09.323Z,2.63
2022-07-28T18:39:38.320Z,2.70
2022-07-28T18:42:07.627Z,2.47
2022-07-28T18:44:38.063Z,2.60
2022-07-28T18:47:07.300Z,2.50
2022-07-28T18:49:37.188Z,2.45
2022-07-28T18:52:08.610Z,2.78
2022-07-28T18:54:37.639Z,2.53
2022-07-28T18:57:06.663Z,3.20
2022-07-28T18:59:40.082Z,3.67
2022-07-28T19:02:26.475Z,4.88
2022-07-28T19:04:55.640Z,3.70
2022-07-28T19:07:24.598Z,3.53
2022-07-28T19:09:53.620Z,3.50
2022-07-28T19:12:24.476Z,2.90
2022-07-28T19:14:54.779Z,3.60
2022-07-28T19:17:26.093Z,3.28
2022-07-28T19:19:56.114Z,5.20
2022-07-28T19:22:26.264Z,4.13
2022-07-28T19:24:55.642Z,4.47
2022-07-28T19:27:24.663Z,6.30
2022-07-28T19:30:01.934Z,5.30
2022-07-28T19:32:30.941Z,4.82
2022-07-28T19:35:00.442Z,4.30
2022-07-28T19:37:29.297Z,4.07
2022-07-28T19:39:58.406Z,7.50
2022-07-28T19:42:29.603Z,8.00
2022-07-28T19:45:00.264Z,4.95
2022-07-28T19:47:29.305Z,5.53
2022-07-28T19:49:58.551Z,5.55
2022-07-28T19:52:28.712Z,5.18
2022-07-28T19:55:00.325Z,5.38
2022-07-28T19:57:29.501Z,5.25
2022-07-28T20:00:02.196Z,5.43
2022-07-28T20:02:31.325Z,4.97
2022-07-28T20:05:00.477Z,4.55
2022-07-28T20:07:29.405Z,4.47
2022-07-28T20:09:58.501Z,4.13
2022-07-28T20:12:30.402Z,4.03
2022-07-28T20:15:03.282Z,3.63
2022-07-28T20:17:38.479Z,3.47
2022-07-28T20:20:11.986Z,3.65
2022-07-28T20:22:41.753Z,3.88
2022-07-28T20:25:13.077Z,3.83
2022-07-28T20:27:43.756Z,3.57
2022-07-28T20:30:23.444Z,3.58
2022-07-28T20:32:54.170Z,4.05
2022-07-28T20:35:23.168Z,4.22
2022-07-28T20:37:52.246Z,4.13
2022-07-28T20:40:24.319Z,3.53
2022-07-28T20:45:27.040Z,4.10
2022-07-28T20:47:56.005Z,3.15
2022-07-28T20:50:25.488Z,2.70
2022-07-28T20:52:54.401Z,2.85
2022-07-28T20:55:23.472Z,2.88
2022-07-28T20:57:55.771Z,2.78
2022-07-28T21:00:27.380Z,4.20
2022-07-28T21:02:59.646Z,4.18
2022-07-28T21:05:35.459Z,3.25
2022-07-28T21:08:09.298Z,3.33
2022-07-28T21:10:45.273Z,3.08
2022-07-28T21:13:20.263Z,3.00
2022-07-28T21:15:50.757Z,3.20
2022-07-28T21:18:19.756Z,3.50
2022-07-28T21:20:49.330Z,3.78
2022-07-28T21:23:18.895Z,3.97
2022-07-28T21:25:48.621Z,4.22
2022-07-28T21:28:34.995Z,4.03
2022-07-28T21:31:05.920Z,3.38
2022-07-28T21:33:35.442Z,3.25
2022-07-28T21:36:04.864Z,3.00
2022-07-28T21:38:33.906Z,3.22
2022-07-28T21:41:02.909Z,3.03
2022-07-28T21:43:32.033Z,3.00
2022-07-28T21:46:01.374Z,3.28
2022-07-28T21:48:33.005Z,2.40
2022-07-28T21:51:01.963Z,2.72
2022-07-28T21:53:30.887Z,3.58
2022-07-28T21:56:01.269Z,3.38
2022-07-28T21:58:30.298Z,3.00
2022-07-28T22:01:02.562Z,3.05
2022-07-28T22:03:33.326Z,3.05
2022-07-28T22:06:02.428Z,3.33
2022-07-28T22:08:31.565Z,3.35
2022-07-28T22:11:01.069Z,4.07
2022-07-28T22:13:30.366Z,3.40
2022-07-28T22:15:59.472Z,3.42
2022-07-28T22:18:28.475Z,3.17
2022-07-28T22:20:58.768Z,3.00
2022-07-28T22:23:29.511Z,3.50
2022-07-28T22:25:58.899Z,3.25
2022-07-28T22:28:29.440Z,3.45
2022-07-28T22:31:08.490Z,3.30
2022-07-28T22:33:39.207Z,3.55
2022-07-28T22:36:10.046Z,3.78
2022-07-28T22:38:39.396Z,3.65
2022-07-28T22:41:09.659Z,3.30
2022-07-28T22:43:39.301Z,3.35
2022-07-28T22:46:10.532Z,3.72
2022-07-28T22:48:39.669Z,3.42
2022-07-28T22:51:12.989Z,4.05
2022-07-28T22:53:42.826Z,3.53
2022-07-28T22:56:12.545Z,3.85
2022-07-28T22:58:41.848Z,3.47
2022-07-28T23:01:10.888Z,3.55
2022-07-28T23:03:40.047Z,4.00
2022-07-28T23:06:09.260Z,3.58
2022-07-28T23:08:39.612Z,3.60
2022-07-28T23:11:08.715Z,3.80
2022-07-28T23:13:37.654Z,3.90
2022-07-28T23:16:10.075Z,3.35
2022-07-28T23:18:40.752Z,3.60
2022-07-28T23:21:10.313Z,3.58
2022-07-28T23:23:40.729Z,3.22
2022-07-28T23:26:09.697Z,3.50
2022-07-28T23:28:40.028Z,3.40
2022-07-28T23:31:09.071Z,3.13
2022-07-28T23:33:56.130Z,3.20
2022-07-28T23:36:27.434Z,3.10
2022-07-28T23:39:00.569Z,3.28
2022-07-28T23:41:29.769Z,2.92
2022-07-28T23:43:58.663Z,3.25
2022-07-28T23:46:27.712Z,2.88
2022-07-28T23:48:56.602Z,3.00
2022-07-28T23:51:46.529Z,3.33
2022-07-28T23:54:16.484Z,3.10
2022-07-28T23:56:45.843Z,2.72
2022-07-28T23:59:17.021Z,2.70
